Time;durP1;ratioP1;P1;durP2;ratioP2;P2;SDS_P1;SDS_P2;PMS_P1;PMS_P2;Temp;Humidity;BMP_temperature;BMP_pressure;BME280_temperature;BME280_humidity;BME280_pressure;Samples;Min_cycle;Max_cycle;Signal;HPM_P1;HPM_P2
2023/05/24 00:44:34;;;;;;;9.20;6.70;;;;;;;15.55;100.00;100468.73;106668;1254;61254;-84
2023/05/24 00:47:22;;;;;;;12.90;6.90;;;;;;;15.45;100.00;100469.44;106559;1258;61319;-85
2023/05/24 00:50:11;;;;;;;12.00;7.90;;;;;;;15.39;100.00;100467.83;106946;1254;72377;-88
2023/05/24 00:53:01;;;;;;;13.30;7.90;;;;;;;15.33;100.00;100473.48;106658;1254;67523;-83
2023/05/24 00:55:49;;;;;;;13.30;6.90;;;;;;;15.29;100.00;100470.81;106675;1254;71194;-83
2023/05/24 00:58:37;;;;;;;21.00;8.50;;;;;;;15.29;100.00;100474.86;106339;1254;61996;-85
2023/05/24 01:01:29;;;;;;;9.80;7.00;;;;;;;15.27;100.00;100473.84;106593;1258;61170;-84
2023/05/24 01:04:19;;;;;;;10.90;7.50;;;;;;;15.23;100.00;100472.15;106521;1258;74759;-89
2023/05/24 01:07:25;;;;;;;9.20;6.60;;;;;;;15.22;100.00;100475.48;106883;1254;69186;-89
2023/05/24 01:10:31;;;;;;;8.60;6.10;;;;;;;15.20;100.00;100478.11;106572;1257;72216;-84
2023/05/24 01:13:35;;;;;;;8.80;6.70;;;;;;;15.20;100.00;100483.89;106558;1254;61193;-83
2023/05/24 01:16:25;;;;;;;9.90;6.70;;;;;;;15.19;100.00;100481.67;106403;1259;61167;-89
2023/05/24 01:19:36;;;;;;;10.90;7.40;;;;;;;15.21;100.00;100486.77;106694;1254;74512;-83
2023/05/24 01:22:49;;;;;;;8.90;6.30;;;;;;;15.25;100.00;100485.86;106451;1254;68597;-89
2023/05/24 01:25:45;;;;;;;;;;;;;;;15.28;100.00;100487.36;106726;1256;72630;-90
2023/05/24 01:28:34;;;;;;;8.90;6.40;;;;;;;15.30;100.00;100491.87;106601;1256;61240;-83
2023/05/24 01:31:21;;;;;;;9.90;6.90;;;;;;;15.26;100.00;100489.09;106476;1255;61154;-88
2023/05/24 01:34:10;;;;;;;11.10;7.30;;;;;;;15.28;100.00;100488.06;106532;1253;74656;-90
2023/05/24 01:36:59;;;;;;;9.40;7.20;;;;;;;15.26;100.00;100489.54;106443;1257;67438;-89
2023/05/24 01:39:47;;;;;;;11.60;7.00;;;;;;;15.24;100.00;100488.41;106717;1254;72650;-84
2023/05/24 01:42:45;;;;;;;12.60;7.80;;;;;;;15.23;100.00;100487.17;106531;1256;61767;-89
2023/05/24 01:45:37;;;;;;;10.70;7.20;;;;;;;15.15;100.00;100488.64;106734;1256;61317;-83
2023/05/24 01:48:43;;;;;;;9.70;7.10;;;;;;;15.11;100.00;100493.78;106662;1257;74653;-83
2023/05/24 01:51:39;;;;;;;10.80;6.90;;;;;;;15.11;100.00;100490.04;106514;1254;68539;-90
2023/05/24 01:54:29;;;;;;;11.70;7.20;;;;;;;15.11;100.00;100492.08;106810;1254;71586;-88
2023/05/24 01:57:18;;;;;;;9.70;6.70;;;;;;;15.06;100.00;100486.50;106663;1254;61690;-83
2023/05/24 02:00:08;;;;;;;13.30;7.20;;;;;;;14.99;100.00;100482.48;106387;1259;60320;-89
2023/05/24 02:03:00;;;;;;;11.50;7.50;;;;;;;14.97;100.00;100485.98;106492;1255;74594;-84
2023/05/24 02:05:49;;;;;;;11.60;7.30;;;;;;;15.00;100.00;100481.52;106398;1254;68129;-89
2023/05/24 02:08:37;;;;;;;11.20;7.50;;;;;;;15.02;100.00;100488.25;106510;1255;72640;-84
2023/05/24 02:11:25;;;;;;;11.90;8.30;;;;;;;15.05;100.00;100490.11;106431;1257;61893;-89
2023/05/24 02:14:13;;;;;;;12.70;7.00;;;;;;;15.14;100.00;100491.95;106556;1259;61259;-88
2023/05/24 02:17:01;;;;;;;12.20;6.80;;;;;;;15.13;100.00;100491.59;106579;1256;74679;-84
2023/05/24 02:19:49;;;;;;;10.90;7.40;;;;;;;15.14;100.00;100493.34;106320;1264;68628;-90
2023/05/24 02:22:38;;;;;;;11.10;7.10;;;;;;;15.12;100.00;100486.66;106473;1255;72662;-84
2023/05/24 02:25:26;;;;;;;14.40;7.20;;;;;;;15.06;100.00;100485.24;106575;1257;61227;-84
2023/05/24 02:28:14;;;;;;;15.00;7.70;;;;;;;15.05;100.00;100487.36;106601;1254;61230;-83
2023/05/24 02:31:03;;;;;;;8.40;6.30;;;;;;;15.13;100.00;100486.79;106277;1259;73304;-84
2023/05/24 02:33:50;;;;;;;8.90;6.00;;;;;;;15.23;100.00;100488.77;106562;1254;68523;-85
2023/05/24 02:36:38;;;;;;;10.40;6.10;;;;;;;15.30;100.00;100491.48;106489;1257;71038;-85
2023/05/24 02:39:26;;;;;;;8.60;6.20;;;;;;;15.35;100.00;100492.36;106365;1254;61292;-90
2023/05/24 02:42:15;;;;;;;9.70;6.80;;;;;;;15.35;100.00;100495.13;106600;1255;61151;-90
2023/05/24 02:45:03;;;;;;;9.20;6.60;;;;;;;15.32;100.00;100496.14;106378;1254;73318;-90
2023/05/24 02:47:51;;;;;;;9.40;6.20;;;;;;;15.26;100.00;100493.48;106652;1256;68668;-90
2023/05/24 02:50:39;;;;;;;11.70;7.30;;;;;;;15.25;100.00;100494.20;106734;1256;72549;-84
2023/05/24 02:53:31;;;;;;;12.40;7.90;;;;;;;15.17;100.00;100503.02;106490;1260;61207;-90
2023/05/24 02:56:20;;;;;;;11.30;7.50;;;;;;;15.25;100.00;100504.09;106428;1254;61119;-84
2023/05/24 02:59:08;;;;;;;11.10;7.00;;;;;;;15.23;100.00;100502.11;106634;1253;73530;-83
2023/05/24 03:01:56;;;;;;;10.60;6.70;;;;;;;15.34;100.00;100502.08;106728;1259;67461;-84
2023/05/24 03:04:45;;;;;;;13.40;7.70;;;;;;;15.40;100.00;100503.83;106470;1258;73617;-90
2023/05/24 03:07:34;;;;;;;14.60;8.10;;;;;;;15.44;100.00;100505.48;106448;1257;61212;-89
2023/05/24 03:10:22;;;;;;;13.70;8.10;;;;;;;15.49;100.00;100505.36;106592;1254;61343;-84
2023/05/24 03:13:10;;;;;;;15.10;8.60;;;;;;;15.53;100.00;100506.66;106424;1252;74483;-84
2023/05/24 03:15:59;;;;;;;18.40;9.00;;;;;;;15.57;100.00;100502.05;106774;1254;67483;-89
2023/05/24 03:18:49;;;;;;;13.50;8.80;;;;;;;15.62;100.00;100499.84;106608;1253;71895;-89
2023/05/24 03:21:38;;;;;;;13.60;8.20;;;;;;;15.74;100.00;100501.51;106434;1255;61336;-90
2023/05/24 03:24:26;;;;;;;15.80;8.90;;;;;;;15.98;100.00;100501.48;106359;1257;61195;-88
2023/05/24 03:27:14;;;;;;;12.70;8.30;;;;;;;16.18;100.00;100499.95;106504;1254;74750;-89
2023/05/24 03:30:05;;;;;;;13.90;7.70;;;;;;;16.34;100.00;100496.88;106366;1255;67454;-85
2023/05/24 03:32:57;;;;;;;13.30;8.20;;;;;;;16.53;100.00;100497.04;106324;1255;72443;-89
2023/05/24 03:35:45;;;;;;;16.40;8.40;;;;;;;16.78;100.00;100492.11;106216;1254;61844;-84
2023/05/24 03:38:33;;;;;;;14.80;8.70;;;;;;;17.03;100.00;100491.77;106280;1254;61347;-89
2023/05/24 03:41:21;;;;;;;13.90;7.90;;;;;;;17.24;100.00;100493.61;106171;1254;74635;-84
2023/05/24 03:44:09;;;;;;;12.50;8.00;;;;;;;17.34;100.00;100491.64;106484;1256;67304;-85
2023/05/24 03:46:57;;;;;;;10.90;8.80;;;;;;;17.44;100.00;100490.84;106427;1259;71822;-85
2023/05/24 03:49:45;;;;;;;14.60;9.60;;;;;;;17.60;100.00;100486.67;106397;1260;61288;-89
2023/05/24 03:52:34;;;;;;;12.00;8.70;;;;;;;17.82;100.00;100490.34;106292;1256;61326;-90
2023/05/24 03:55:24;;;;;;;13.40;8.10;;;;;;;18.08;100.00;100493.86;106363;1256;74685;-85
2023/05/24 03:58:13;;;;;;;13.40;8.30;;;;;;;18.33;100.00;100493.98;106596;1254;67583;-90
2023/05/24 04:01:01;;;;;;;11.50;7.80;;;;;;;18.62;100.00;100491.27;106690;1254;72692;-90
2023/05/24 04:03:50;;;;;;;15.80;8.00;;;;;;;18.92;100.00;100494.20;106209;1261;61333;-90
2023/05/24 04:06:40;;;;;;;14.10;8.20;;;;;;;19.14;100.00;100493.41;106512;1254;61505;-90
2023/05/24 04:09:29;;;;;;;12.80;8.50;;;;;;;19.35;100.00;100497.45;106255;1254;74673;-85
2023/05/24 04:12:17;;;;;;;13.00;7.90;;;;;;;19.44;100.00;100502.23;106578;1254;67586;-89
2023/05/24 04:15:08;;;;;;;11.90;7.80;;;;;;;19.56;100.00;100500.61;106328;1257;73062;-86
2023/05/24 04:17:55;;;;;;;14.50;9.30;;;;;;;19.68;100.00;100503.95;106598;1252;61157;-85
2023/05/24 04:20:43;;;;;;;11.10;8.20;;;;;;;19.79;100.00;100502.45;106522;1253;61370;-90
2023/05/24 04:23:33;;;;;;;12.70;8.20;;;;;;;19.98;100.00;100505.73;106431;1254;73111;-89
2023/05/24 04:26:21;;;;;;;12.20;8.90;;;;;;;20.24;100.00;100501.51;106445;1253;68560;-86
2023/05/24 04:29:10;;;;;;;14.20;8.30;;;;;;;20.36;100.00;100496.61;106613;1254;72666;-85
2023/05/24 04:33:02;;;;;;;16.10;9.30;;;;;;;20.66;100.00;100504.92;102933;1293;600241;-89
2023/05/24 04:35:52;;;;;;;10.60;7.40;;;;;;;20.85;100.00;100506.50;105419;1270;61250;-84
2023/05/24 04:38:40;;;;;;;14.00;7.90;;;;;;;21.14;100.00;100509.00;105503;1268;59299;-84
2023/05/24 04:41:34;;;;;;;10.10;7.00;;;;;;;21.20;100.00;100503.61;105864;1267;73004;-85
2023/05/24 04:44:23;;;;;;;12.90;8.00;;;;;;;21.36;100.00;100504.30;105481;1267;67302;-89
2023/05/24 04:47:12;;;;;;;12.00;7.50;;;;;;;21.57;100.00;100501.75;105465;1270;186621;-90
2023/05/24 04:50:01;;;;;;;11.60;7.40;;;;;;;21.76;100.00;100505.55;105532;1267;59668;-84
2023/05/24 04:52:50;;;;;;;16.90;8.50;;;;;;;22.05;100.00;100511.67;105610;1263;59262;-85
2023/05/24 04:55:40;;;;;;;14.50;8.20;;;;;;;22.39;100.00;100512.69;105714;1266;72364;-88
2023/05/24 04:58:28;;;;;;;12.30;8.00;;;;;;;22.59;100.00;100512.96;105649;1260;67124;-89
2023/05/24 05:01:17;;;;;;;12.10;8.80;;;;;;;22.70;100.00;100512.20;105836;1266;71372;-90
2023/05/24 05:04:06;;;;;;;11.10;7.40;;;;;;;22.68;100.00;100512.08;105782;1260;60160;-85
2023/05/24 05:06:56;;;;;;;14.70;8.10;;;;;;;22.80;100.00;100511.73;105674;1263;60074;-86
2023/05/24 05:09:44;;;;;;;12.80;7.00;;;;;;;22.97;100.00;100515.08;105709;1266;73108;-85
2023/05/24 05:12:33;;;;;;;10.10;7.20;;;;;;;23.02;100.00;100519.92;105801;1262;67126;-90
2023/05/24 05:15:22;;;;;;;10.60;7.20;;;;;;;23.16;100.00;100517.29;105850;1260;72654;-89
2023/05/24 05:18:11;;;;;;;14.40;6.90;;;;;;;23.38;100.00;100516.36;105749;1266;61923;-89
2023/05/24 05:21:00;;;;;;;11.60;7.00;;;;;;;23.59;100.00;100520.95;106035;1263;60057;-91
2023/05/24 05:23:48;;;;;;;9.00;6.80;;;;;;;23.72;100.00;100520.28;105871;1259;72862;-84
2023/05/24 05:26:37;;;;;;;10.60;6.70;;;;;;;23.94;100.00;100521.45;105672;1263;68576;-84
2023/05/24 05:29:26;;;;;;;10.70;6.90;;;;;;;24.17;100.00;100521.16;105688;1266;72632;-85
2023/05/24 05:32:15;;;;;;;8.20;6.30;;;;;;;24.41;100.00;100523.86;105816;1259;61611;-85
2023/05/24 05:35:04;;;;;;;9.80;5.90;;;;;;;24.64;100.00;100529.46;105679;1260;59962;-85
2023/05/24 05:37:53;;;;;;;12.80;6.70;;;;;;;24.83;100.00;100527.70;105773;1263;74008;-90
2023/05/24 05:40:41;;;;;;;9.90;6.20;;;;;;;25.03;100.00;100532.80;105914;1262;68496;-85
2023/05/24 05:43:30;;;;;;;10.40;6.00;;;;;;;25.14;100.00;100530.66;105714;1263;71785;-85
2023/05/24 05:46:20;;;;;;;7.20;5.10;;;;;;;25.27;100.00;100536.55;105799;1262;60013;-85
2023/05/24 05:49:09;;;;;;;5.40;4.80;;;;;;;25.43;100.00;100540.05;105960;1260;59685;-85
2023/05/24 05:51:58;;;;;;;9.20;5.50;;;;;;;25.47;100.00;100545.05;105766;1266;64074;-91
2023/05/24 05:54:46;;;;;;;7.80;4.80;;;;;;;25.56;100.00;100542.77;105721;1261;59729;-84
2023/05/24 05:57:35;;;;;;;7.40;4.80;;;;;;;25.63;100.00;100542.33;105768;1260;63746;-85
2023/05/24 06:00:24;;;;;;;7.30;4.60;;;;;;;25.72;100.00;100543.08;105749;1260;59678;-84
2023/05/24 06:03:13;;;;;;;6.30;4.50;;;;;;;25.93;100.00;100545.28;105722;1266;60945;-84
2023/05/24 06:06:01;;;;;;;7.60;4.40;;;;;;;26.04;100.00;100547.49;105728;1266;64157;-89
2023/05/24 06:08:50;;;;;;;6.20;4.60;;;;;;;26.13;100.00;100546.80;106031;1263;59783;-83
2023/05/24 06:11:43;;;;;;;6.60;5.10;;;;;;;26.24;100.00;100542.82;105916;1261;63702;-84
2023/05/24 06:14:33;;;;;;;6.90;5.60;;;;;;;26.52;100.00;100540.00;105999;1263;59828;-85
2023/05/24 06:17:23;;;;;;;7.90;4.90;;;;;;;26.79;100.00;100540.80;105846;1260;59624;-84
2023/05/24 06:20:14;;;;;;;9.90;5.10;;;;;;;26.84;100.00;100541.09;105766;1260;64071;-84
2023/05/24 06:23:04;;;;;;;6.40;4.60;;;;;;;27.07;100.00;100543.44;105852;1264;59785;-84
2023/05/24 06:25:52;;;;;;;10.30;5.00;;;;;;;27.31;100.00;100547.70;105789;1263;63594;-84
2023/05/24 06:28:41;;;;;;;9.50;5.10;;;;;;;27.47;100.00;100546.52;105725;1260;59772;-84
2023/05/24 06:31:30;;;;;;;7.20;4.70;;;;;;;27.70;100.00;100550.88;105705;1264;59564;-85
2023/05/24 06:34:22;;;;;;;5.70;3.70;;;;;;;27.86;100.00;100547.60;105843;1262;63025;-84
2023/05/24 06:37:13;;;;;;;7.30;4.00;;;;;;;27.91;100.00;100545.85;105738;1263;59831;-84
2023/05/24 06:40:05;;;;;;;5.50;4.10;;;;;;;28.07;98.34;100548.73;105624;1263;62574;-84
2023/05/24 06:42:53;;;;;;;8.00;5.30;;;;;;;28.27;91.59;100548.45;105853;1262;59684;-84
2023/05/24 06:45:42;;;;;;;6.20;4.10;;;;;;;28.36;87.21;100549.83;105777;1263;59218;-84
2023/05/24 06:48:31;;;;;;;5.10;3.70;;;;;;;28.42;86.14;100548.33;106052;1262;64267;-84
2023/05/24 06:51:19;;;;;;;7.90;3.00;;;;;;;28.44;80.26;100549.06;105907;1261;59753;-84
2023/05/24 06:54:08;;;;;;;8.00;2.90;;;;;;;28.33;78.81;100552.96;105905;1263;72409;-84
2023/05/24 06:56:57;;;;;;;5.30;1.90;;;;;;;28.38;76.89;100552.33;105754;1267;59579;-84
2023/05/24 06:59:46;;;;;;;3.60;2.80;;;;;;;28.47;73.67;100554.38;105957;1262;59618;-84
2023/05/24 07:02:35;;;;;;;3.70;2.60;;;;;;;28.49;73.34;100550.77;105743;1267;64234;-84
2023/05/24 07:05:23;;;;;;;6.40;2.90;;;;;;;28.51;73.38;100550.92;105689;1262;59332;-83
2023/05/24 07:08:12;;;;;;;7.00;3.00;;;;;;;28.55;75.32;100552.62;105777;1263;63700;-84
2023/05/24 07:11:02;;;;;;;5.60;3.50;;;;;;;28.64;75.86;100549.90;105642;1265;59750;-84
2023/05/24 07:13:50;;;;;;;5.90;3.50;;;;;;;28.76;76.15;100544.27;105806;1262;61031;-84
2023/05/24 07:16:39;;;;;;;10.40;4.40;;;;;;;29.00;77.81;100546.85;105730;1261;62876;-84
2023/05/24 07:19:28;;;;;;;5.70;4.00;;;;;;;29.28;72.85;100544.82;105670;1262;60619;-84
2023/05/24 07:22:17;;;;;;;5.70;3.90;;;;;;;29.35;68.71;100540.06;105692;1263;63860;-84
2023/05/24 07:25:06;;;;;;;6.70;3.60;;;;;;;29.37;71.48;100539.98;105673;1266;59632;-84
2023/05/24 07:27:54;;;;;;;3.30;2.70;;;;;;;29.60;73.53;100542.24;105787;1262;59619;-83
2023/05/24 07:30:44;;;;;;;8.90;4.00;;;;;;;29.86;69.53;100537.56;105795;1262;64231;-83
2023/05/24 07:33:33;;;;;;;7.40;2.80;;;;;;;30.03;68.59;100537.23;105782;1263;59423;-84
2023/05/24 07:36:24;;;;;;;6.20;3.30;;;;;;;30.28;65.50;100536.30;105786;1269;63762;-84
2023/05/24 07:39:14;;;;;;;5.30;3.40;;;;;;;30.25;64.98;100533.48;105716;1261;59612;-83
2023/05/24 07:42:03;;;;;;;8.30;3.50;;;;;;;30.17;64.68;100542.31;105927;1261;59644;-84
2023/05/24 07:44:51;;;;;;;4.80;2.90;;;;;;;29.92;59.94;100545.10;105822;1263;64224;-84
2023/05/24 07:47:40;;;;;;;4.80;2.70;;;;;;;29.63;61.95;100540.45;105836;1260;61786;-84
2023/05/24 07:50:29;;;;;;;5.00;2.70;;;;;;;29.50;62.74;100538.08;105914;1262;63753;-83
2023/05/24 07:53:18;;;;;;;4.80;2.70;;;;;;;29.49;62.75;100536.47;105758;1263;59664;-83
2023/05/24 07:56:07;;;;;;;4.60;3.30;;;;;;;29.62;60.51;100534.91;106046;1260;59336;-83
2023/05/24 07:59:02;;;;;;;4.90;3.20;;;;;;;29.59;64.61;100531.95;105813;1263;72974;-83
2023/05/24 08:01:51;;;;;;;5.00;2.60;;;;;;;29.75;64.80;100531.50;105828;1261;59725;-83
2023/05/24 08:04:40;;;;;;;5.10;2.80;;;;;;;30.13;59.99;100529.21;105755;1264;63937;-83
2023/05/24 08:07:28;;;;;;;7.50;3.10;;;;;;;30.24;58.49;100529.55;105734;1269;59752;-84
2023/05/24 08:10:17;;;;;;;5.80;3.00;;;;;;;30.22;57.42;100530.53;105850;1266;59122;-84
2023/05/24 08:13:06;;;;;;;4.40;2.90;;;;;;;30.15;57.84;100530.33;105898;1266;62914;-84
2023/05/24 08:15:55;;;;;;;4.10;3.00;;;;;;;30.22;59.73;100534.87;105742;1263;69057;-84
2023/05/24 08:18:43;;;;;;;4.50;2.70;;;;;;;30.16;55.64;100538.62;105743;1264;64419;-84
2023/05/24 08:21:32;;;;;;;7.40;3.50;;;;;;;29.82;58.40;100535.73;105891;1263;59878;-84
2023/05/24 08:24:21;;;;;;;5.40;2.70;;;;;;;29.77;57.52;100536.33;105861;1260;59676;-84
2023/05/24 08:27:10;;;;;;;4.40;2.90;;;;;;;29.93;57.94;100534.87;105741;1266;64442;-84
2023/05/24 08:29:59;;;;;;;8.20;3.10;;;;;;;30.07;60.37;100531.82;105768;1261;59756;-84
2023/05/24 08:32:51;;;;;;;5.30;2.90;;;;;;;30.23;61.27;100524.50;105810;1262;63706;-84
2023/05/24 08:35:39;;;;;;;5.30;3.20;;;;;;;30.46;59.81;100522.09;105947;1266;59502;-84
2023/05/24 08:38:28;;;;;;;5.00;3.20;;;;;;;30.62;56.71;100522.06;105959;1266;59496;-84
2023/05/24 08:41:16;;;;;;;7.80;3.30;;;;;;;30.76;56.57;100523.95;105730;1264;64184;-84
2023/05/24 08:44:08;;;;;;;3.90;3.20;;;;;;;30.82;55.83;100518.67;105749;1262;59548;-85
2023/05/24 08:46:56;;;;;;;5.00;3.50;;;;;;;30.91;55.46;100514.88;105791;1263;62528;-84
2023/05/24 08:49:45;;;;;;;4.00;2.90;;;;;;;30.88;52.52;100517.82;105685;1262;59618;-84
2023/05/24 08:52:34;;;;;;;5.30;2.70;;;;;;;30.57;50.46;100521.36;105788;1262;59654;-84
2023/05/24 08:55:23;;;;;;;18.00;3.50;;;;;;;30.31;51.40;100522.05;105792;1262;62906;-83
2023/05/24 08:58:11;;;;;;;7.40;3.10;;;;;;;30.33;52.43;100519.61;105605;1261;59772;-83
2023/05/24 09:01:00;;;;;;;5.30;2.50;;;;;;;30.59;53.48;100512.02;105754;1263;63796;-83
2023/05/24 09:03:50;;;;;;;5.60;2.60;;;;;;;30.97;51.91;100514.59;105668;1266;59674;-83
2023/05/24 09:06:38;;;;;;;3.80;2.70;;;;;;;31.10;49.23;100520.03;105690;1263;59809;-83
2023/05/24 09:09:28;;;;;;;4.20;3.00;;;;;;;31.00;48.49;100518.61;105694;1260;62913;-84
2023/05/24 09:12:17;;;;;;;8.10;3.20;;;;;;;30.77;49.00;100515.64;105795;1262;59777;-84
2023/05/24 09:15:24;;;;;;;5.00;3.00;;;;;;;30.77;50.62;100515.58;105751;1266;63179;-84
2023/05/24 09:18:13;;;;;;;6.10;3.60;;;;;;;30.84;53.79;100509.56;105660;1262;60879;-84
2023/05/24 09:21:01;;;;;;;5.80;2.70;;;;;;;31.04;53.39;100512.11;105755;1262;60341;-84
2023/05/24 09:23:50;;;;;;;4.10;3.30;;;;;;;31.08;50.21;100510.70;106013;1259;65112;-84
2023/05/24 09:26:38;;;;;;;8.20;3.30;;;;;;;30.98;50.71;100506.29;105935;1259;60411;-84
2023/05/24 09:29:27;;;;;;;7.00;3.10;;;;;;;30.92;50.62;100504.42;105964;1257;62487;-83
2023/05/24 09:32:17;;;;;;;6.10;2.70;;;;;;;30.85;50.54;100500.29;106092;1256;60367;-83
2023/05/24 09:35:09;;;;;;;3.30;2.60;;;;;;;30.66;49.12;100501.08;105947;1260;60329;-83
2023/05/24 09:38:00;;;;;;;3.90;2.40;;;;;;;30.65;50.03;100499.30;106314;1257;63685;-83
2023/05/24 09:40:58;;;;;;;4.20;2.60;;;;;;;30.79;49.38;100491.29;106146;1261;62148;-83
2023/05/24 09:43:48;;;;;;;6.00;2.50;;;;;;;30.87;49.93;100497.69;106024;1257;62571;-83
2023/05/24 09:46:37;;;;;;;8.20;2.70;;;;;;;30.87;50.71;100504.79;106292;1259;60438;-83
2023/05/24 09:49:26;;;;;;;4.90;2.60;;;;;;;31.09;50.24;100505.30;106431;1259;60469;-83
2023/05/24 09:52:15;;;;;;;5.80;2.70;;;;;;;31.22;47.71;100502.58;106206;1259;64927;-83
2023/05/24 09:55:13;;;;;;;2.80;2.10;;;;;;;31.17;48.08;100497.38;106180;1259;62088;-83
2023/05/24 09:58:07;;;;;;;3.90;2.70;;;;;;;31.16;47.50;100497.96;106468;1257;63790;-84
2023/05/24 10:01:03;;;;;;;3.10;2.40;;;;;;;31.12;47.80;100501.95;106416;1259;60547;-85
2023/05/24 10:03:56;;;;;;;6.40;2.40;;;;;;;31.04;49.35;100499.61;106376;1259;60420;-84
2023/05/24 10:06:47;;;;;;;5.00;2.30;;;;;;;31.13;49.17;100505.73;106523;1257;64918;-84
2023/05/24 10:09:36;;;;;;;3.40;2.80;;;;;;;31.29;48.49;100509.11;106294;1263;61104;-83
2023/05/24 10:12:24;;;;;;;3.50;2.20;;;;;;;31.26;48.47;100506.80;106247;1259;62565;-83
2023/05/24 10:15:13;;;;;;;4.40;2.40;;;;;;;31.27;48.39;100507.11;106455;1259;59267;-83
2023/05/24 10:18:07;;;;;;;5.60;2.60;;;;;;;31.39;48.56;100508.20;106023;1259;59279;-83
2023/05/24 10:21:00;;;;;;;4.90;2.70;;;;;;;31.61;47.53;100510.23;106349;1256;63660;-83
2023/05/24 10:23:50;;;;;;;8.50;2.90;;;;;;;31.58;46.04;100508.41;106242;1257;59855;-83
2023/05/24 10:26:39;;;;;;;4.20;2.70;;;;;;;31.45;46.81;100506.86;106249;1262;62545;-83
2023/05/24 10:29:44;;;;;;;4.60;2.60;;;;;;;31.37;46.23;100505.55;106037;1258;60359;-83
2023/05/24 10:32:33;;;;;;;3.00;2.30;;;;;;;31.23;46.76;100509.17;106290;1261;60517;-83
2023/05/24 10:35:22;;;;;;;4.70;2.90;;;;;;;31.16;47.05;100506.10;106363;1259;63702;-84
2023/05/24 10:38:10;;;;;;;3.30;2.30;;;;;;;31.19;46.15;100504.13;106371;1263;60484;-83
2023/05/24 10:40:59;;;;;;;8.20;2.70;;;;;;;31.10;47.08;100505.27;106335;1259;63756;-83
2023/05/24 10:43:48;;;;;;;5.50;2.80;;;;;;;31.09;48.29;100506.91;106133;1257;60389;-83
2023/05/24 10:47:09;;;;;;;9.80;2.60;;;;;;;31.26;48.62;100504.79;106206;1259;60244;-83
2023/05/24 10:50:05;;;;;;;3.70;2.20;;;;;;;31.48;47.02;100500.19;106035;1259;64929;-83
2023/05/24 10:53:22;;;;;;;4.80;2.70;;;;;;;31.54;47.49;100496.74;106200;1262;60526;-83
2023/05/24 10:56:12;;;;;;;3.80;2.50;;;;;;;31.60;47.45;100497.63;106013;1260;62456;-84
2023/05/24 10:59:04;;;;;;;5.60;2.10;;;;;;;31.63;47.56;100495.91;105960;1258;60542;-83
2023/05/24 11:01:57;;;;;;;4.40;2.30;;;;;;;31.70;48.05;100500.73;105931;1263;60291;-84
2023/05/24 11:04:46;;;;;;;2.60;2.30;;;;;;;31.87;47.07;100501.16;105806;1259;65079;-83
2023/05/24 11:07:41;;;;;;;5.10;2.50;;;;;;;32.04;46.66;100498.94;105965;1263;60451;-83
2023/05/24 11:10:30;;;;;;;3.90;2.60;;;;;;;32.20;45.31;100491.66;106025;1258;62500;-83
2023/05/24 11:13:19;;;;;;;4.40;2.10;;;;;;;32.22;44.86;100486.79;106044;1257;60514;-84
2023/05/24 11:16:08;;;;;;;3.60;2.40;;;;;;;32.20;44.45;100484.64;106022;1259;60345;-84
2023/05/24 11:18:57;;;;;;;3.80;2.40;;;;;;;32.20;44.26;100483.34;105807;1261;64933;-84
2023/05/24 11:21:46;;;;;;;4.90;2.40;;;;;;;32.30;43.98;100480.27;105904;1260;60656;-83
2023/05/24 11:24:36;;;;;;;4.00;2.70;;;;;;;32.39;43.84;100474.72;106058;1260;62473;-83
2023/05/24 11:27:24;;;;;;;3.40;2.30;;;;;;;32.64;43.34;100466.83;106187;1259;60327;-84
2023/05/24 11:30:14;;;;;;;3.20;2.30;;;;;;;32.87;43.27;100468.85;106413;1256;60299;-84
2023/05/24 11:33:03;;;;;;;6.70;2.70;;;;;;;33.04;42.37;100466.84;106348;1259;65690;-83
2023/05/24 11:35:53;;;;;;;5.30;2.40;;;;;;;33.17;42.52;100471.92;106368;1254;60453;-83
2023/05/24 11:38:41;;;;;;;3.60;2.40;;;;;;;33.22;42.45;100475.16;106271;1255;64914;-83
2023/05/24 11:41:30;;;;;;;4.70;2.50;;;;;;;33.41;42.51;100479.23;106252;1253;60374;-83
2023/05/24 11:44:18;;;;;;;2.80;2.30;;;;;;;33.49;41.25;100476.95;106191;1260;60344;-84
2023/05/24 11:47:07;;;;;;;2.30;2.10;;;;;;;33.28;41.79;100477.45;106289;1256;67264;-84
2023/05/24 11:49:56;;;;;;;4.30;2.40;;;;;;;33.04;43.28;100482.68;106316;1253;60443;-83
2023/05/24 11:52:44;;;;;;;3.60;2.40;;;;;;;32.87;43.75;100482.73;106319;1253;64789;-84
2023/05/24 11:55:33;;;;;;;4.20;2.20;;;;;;;32.74;42.99;100477.55;106349;1254;60459;-84
2023/05/24 11:58:23;;;;;;;4.60;2.50;;;;;;;32.57;42.85;100477.36;106374;1253;60603;-83
2023/05/24 12:01:26;;;;;;;4.50;2.10;;;;;;;32.42;41.69;100477.92;106282;1253;63642;-84
2023/05/24 12:04:15;;;;;;;2.30;1.90;;;;;;;32.21;43.16;100475.10;106267;1255;60479;-84
2023/05/24 12:07:04;;;;;;;3.10;2.20;;;;;;;32.13;44.11;100473.84;106339;1254;64456;-83
2023/05/24 12:09:53;;;;;;;4.10;2.20;;;;;;;32.04;44.14;100469.38;106133;1253;60389;-84
2023/05/24 12:12:45;;;;;;;4.00;2.20;;;;;;;31.85;44.65;100468.43;106348;1253;60341;-83
2023/05/24 12:15:34;;;;;;;2.40;1.80;;;;;;;31.77;44.69;100466.52;106293;1255;65664;-83
2023/05/24 12:18:24;;;;;;;5.10;2.00;;;;;;;31.67;44.08;100463.83;106428;1254;60563;-84
2023/05/24 12:21:13;;;;;;;7.30;2.20;;;;;;;31.59;43.45;100465.23;106606;1253;62461;-83
2023/05/24 12:24:22;;;;;;;4.30;1.80;;;;;;;31.52;43.98;100461.27;106132;1253;60541;-83
2023/05/24 12:27:10;;;;;;;4.60;1.90;;;;;;;31.62;44.30;100454.12;106481;1253;60410;-83
2023/05/24 12:30:05;;;;;;;4.30;1.80;;;;;;;31.76;44.81;100450.69;106320;1253;64494;-83
2023/05/24 12:32:54;;;;;;;2.80;1.70;;;;;;;31.87;43.06;100445.30;106470;1253;60533;-83
2023/05/24 12:35:43;;;;;;;2.80;1.90;;;;;;;31.90;43.04;100439.60;106247;1254;63841;-84
2023/05/24 12:38:31;;;;;;;2.90;1.60;;;;;;;31.92;42.20;100437.08;106489;1254;60484;-84
2023/05/24 12:41:20;;;;;;;2.00;1.20;;;;;;;31.92;41.46;100435.80;106407;1251;60663;-84
2023/05/24 12:44:10;;;;;;;3.60;1.10;;;;;;;31.92;41.02;100435.71;106249;1256;64902;-84
2023/05/24 12:47:00;;;;;;;4.60;1.50;;;;;;;31.83;41.02;100438.17;106618;1256;60502;-83
2023/05/24 12:49:49;;;;;;;2.80;1.40;;;;;;;31.72;41.58;100441.23;106391;1254;63734;-83
2023/05/24 12:52:38;;;;;;;5.60;1.70;;;;;;;31.71;42.22;100442.70;106366;1256;60470;-83
2023/05/24 12:55:26;;;;;;;2.40;1.10;;;;;;;31.65;42.34;100440.67;106286;1257;60433;-83
2023/05/24 12:58:16;;;;;;;1.30;1.00;;;;;;;31.73;41.62;100439.77;106436;1256;65368;-84
2023/05/24 13:01:04;;;;;;;2.50;1.60;;;;;;;31.78;41.17;100444.55;106425;1259;60479;-83
2023/05/24 13:03:53;;;;;;;6.10;1.70;;;;;;;31.73;41.13;100447.83;106377;1256;62496;-84
2023/05/24 13:06:42;;;;;;;2.00;1.30;;;;;;;31.56;41.79;100448.64;106451;1256;60453;-84
2023/05/24 13:13:34;;;;;;;;;;;;;;;31.57;42.33;100457.02;106426;1256;65290;-83
2023/05/24 13:16:23;;;;;;;4.90;1.90;;;;;;;31.66;42.41;100459.23;106387;1254;60434;-83
2023/05/24 13:19:11;;;;;;;2.80;1.60;;;;;;;31.65;42.62;100460.21;106330;1256;64263;-83
2023/05/24 13:22:00;;;;;;;5.00;1.30;;;;;;;31.67;42.21;100462.03;106385;1254;59916;-83
2023/05/24 13:24:48;;;;;;;4.50;1.70;;;;;;;31.81;42.25;100462.73;106591;1257;59913;-84
2023/05/24 13:27:37;;;;;;;2.10;1.60;;;;;;;32.00;43.74;100463.63;106388;1254;64831;-83
2023/05/24 13:30:27;;;;;;;3.50;1.60;;;;;;;32.44;44.94;100463.66;106234;1257;60437;-82
2023/05/24 13:33:15;;;;;;;1.60;1.40;;;;;;;33.29;43.28;100462.93;106354;1259;63725;-83
2023/05/24 13:36:04;;;;;;;1.60;1.50;;;;;;;34.13;40.51;100466.17;106318;1259;60493;-83
2023/05/24 13:38:53;;;;;;;3.30;1.30;;;;;;;34.85;37.90;100459.13;106296;1259;60512;-84
2023/05/24 13:42:01;;;;;;;2.60;1.30;;;;;;;35.51;36.29;100463.44;106290;1253;65291;-83
2023/05/24 13:44:50;;;;;;;2.50;1.20;;;;;;;35.96;35.00;100455.59;106375;1259;60461;-84